Time;durP1;ratioP1;P1;durP2;ratioP2;P2;SDS_P1;SDS_P2;PMS_P1;PMS_P2;Temp;Humidity;BMP_temperature;BMP_pressure;BME280_temperature;BME280_humidity;BME280_pressure;Samples;Min_cycle;Max_cycle;Signal;HPM_P1;HPM_P2
2022/05/25 00:01:42;;;;;;;4.75;2.60;;;12.90;99.90;;;;;;4972157;28;20031;-78
2022/05/25 00:04:09;;;;;;;3.20;2.67;;;12.90;99.90;;;;;;4972406;28;20042;-78
2022/05/25 00:06:34;;;;;;;3.88;2.50;;;12.90;99.90;;;;;;4954383;28;20043;-78
2022/05/25 00:09:00;;;;;;;4.78;2.80;;;12.90;99.90;;;;;;4971400;28;20460;-78
2022/05/25 00:11:26;;;;;;;3.70;2.50;;;12.90;99.90;;;;;;4971808;28;20034;-78
2022/05/25 00:13:52;;;;;;;8.63;3.10;;;12.90;99.90;;;;;;4972125;28;20031;-78
2022/05/25 00:16:18;;;;;;;4.82;2.30;;;12.90;99.90;;;;;;4971863;28;20122;-78
2022/05/25 00:21:28;;;;;;;3.38;2.30;;;12.80;99.90;;;;;;4971704;28;20189;-78
2022/05/25 00:23:54;;;;;;;4.82;2.72;;;12.90;99.90;;;;;;4971979;28;20427;-78
2022/05/25 00:26:19;;;;;;;5.30;2.97;;;12.80;99.90;;;;;;4971390;28;20038;-78
2022/05/25 00:28:45;;;;;;;5.97;3.08;;;12.80;99.90;;;;;;4971492;28;20384;-78
2022/05/25 00:31:12;;;;;;;5.40;2.45;;;12.80;99.90;;;;;;4971193;28;20031;-78
2022/05/25 00:33:38;;;;;;;6.10;2.67;;;12.80;99.90;;;;;;4971613;28;20106;-78
2022/05/25 00:36:04;;;;;;;5.22;2.78;;;12.80;99.90;;;;;;4970854;28;20205;-78
2022/05/25 00:38:29;;;;;;;5.80;3.58;;;12.80;99.90;;;;;;4971300;28;20038;-78
2022/05/25 00:40:57;;;;;;;4.07;3.20;;;12.80;99.90;;;;;;4971125;28;20128;-78
2022/05/25 00:43:23;;;;;;;6.03;2.95;;;12.80;99.90;;;;;;4971170;28;20030;-78
2022/05/25 00:45:51;;;;;;;6.20;2.70;;;12.80;99.90;;;;;;4971042;28;20579;-78
2022/05/25 00:48:23;;;;;;;6.65;3.00;;;12.80;99.90;;;;;;4971770;28;20118;-77
2022/05/25 00:53:33;;;;;;;7.35;2.90;;;12.80;99.90;;;;;;4971738;28;20077;-78
2022/05/25 00:56:00;;;;;;;4.25;2.65;;;12.80;99.90;;;;;;4981930;28;20113;-78
2022/05/25 00:58:26;;;;;;;4.32;2.90;;;12.80;99.90;;;;;;4971140;28;20035;-78
2022/05/25 01:00:52;;;;;;;4.47;2.72;;;12.80;99.90;;;;;;4970292;28;20477;-78
2022/05/25 01:03:19;;;;;;;7.30;3.20;;;12.80;99.90;;;;;;4970274;28;20030;-78
2022/05/25 01:06:08;;;;;;;6.78;3.53;;;12.80;99.90;;;;;;4969752;28;20471;-79
2022/05/25 01:08:58;;;;;;;7.22;3.05;;;12.80;99.90;;;;;;4970846;28;20034;-78
2022/05/25 01:11:42;;;;;;;3.30;2.47;;;12.80;99.90;;;;;;4953573;28;20045;-78
2022/05/25 01:14:43;;;;;;;5.03;3.05;;;12.80;99.90;;;;;;4970102;28;20081;-78
2022/05/25 01:17:20;;;;;;;4.38;2.83;;;12.80;99.90;;;;;;4956479;28;20209;-78
2022/05/25 01:20:10;;;;;;;3.70;2.78;;;12.80;99.90;;;;;;4970237;28;20034;-78
2022/05/25 01:22:44;;;;;;;6.40;2.72;;;12.80;99.90;;;;;;4969758;28;20035;-78
2022/05/25 01:25:25;;;;;;;10.55;2.90;;;12.80;99.90;;;;;;4971792;28;20034;-79
2022/05/25 01:27:53;;;;;;;6.35;3.00;;;12.80;99.90;;;;;;4971796;28;20027;-78
2022/05/25 01:30:28;;;;;;;7.40;3.08;;;12.80;99.90;;;;;;4970415;28;20201;-79
2022/05/25 01:33:22;;;;;;;5.45;3.28;;;12.80;99.90;;;;;;4971891;28;20034;-78
2022/05/25 01:36:00;;;;;;;3.58;2.80;;;12.80;99.90;;;;;;4971413;28;20074;-78
2022/05/25 01:38:44;;;;;;;4.38;3.20;;;12.70;99.90;;;;;;4955171;28;20108;-78
2022/05/25 01:41:42;;;;;;;5.30;2.90;;;12.70;99.90;;;;;;4954067;28;20029;-78
2022/05/25 01:44:15;;;;;;;5.10;2.85;;;12.80;99.90;;;;;;4971942;28;20030;-78
2022/05/25 01:46:46;;;;;;;6.18;2.80;;;12.80;99.90;;;;;;4971627;28;20034;-79
2022/05/25 01:49:16;;;;;;;5.53;3.15;;;12.70;99.90;;;;;;4953818;28;20030;-79
2022/05/25 01:51:47;;;;;;;8.23;3.40;;;12.70;99.90;;;;;;4971653;28;20030;-79
2022/05/25 01:54:19;;;;;;;10.40;3.53;;;12.70;99.90;;;;;;4973429;28;20035;-79
2022/05/25 01:56:50;;;;;;;7.20;3.42;;;12.70;99.90;;;;;;4979288;28;20137;-79
2022/05/25 01:59:17;;;;;;;4.45;2.88;;;12.70;99.90;;;;;;4970851;28;20420;-79
2022/05/25 02:04:41;;;;;;;3.80;3.00;;;12.60;99.90;;;;;;4970985;28;20081;-79
2022/05/25 02:07:17;;;;;;;4.78;3.03;;;12.70;99.90;;;;;;4970713;28;20551;-79
2022/05/25 02:10:10;;;;;;;6.80;3.47;;;12.70;99.90;;;;;;4970456;28;20396;-79
2022/05/25 02:13:13;;;;;;;6.93;3.65;;;12.70;99.90;;;;;;4970789;28;20488;-79
2022/05/25 02:15:41;;;;;;;4.75;3.97;;;12.70;99.90;;;;;;4970575;28;20022;-79
2022/05/25 02:18:19;;;;;;;6.75;4.10;;;12.70;99.90;;;;;;4953280;28;20093;-79
2022/05/25 02:20:59;;;;;;;5.63;4.10;;;12.80;99.90;;;;;;4970770;28;20031;-79
2022/05/25 02:23:41;;;;;;;7.40;4.57;;;12.80;99.90;;;;;;4969643;28;20891;-79
2022/05/25 02:26:15;;;;;;;8.02;5.50;;;12.80;99.90;;;;;;4970295;28;20130;-79
2022/05/25 02:28:45;;;;;;;6.95;5.53;;;12.80;99.90;;;;;;4970439;28;20027;-79
2022/05/25 02:31:16;;;;;;;7.35;5.20;;;12.80;99.90;;;;;;4970456;28;20133;-79
2022/05/25 02:33:46;;;;;;;8.18;5.13;;;12.80;99.90;;;;;;4970646;28;20122;-79
2022/05/25 02:36:13;;;;;;;5.70;4.63;;;12.80;99.90;;;;;;4970476;28;20506;-79
2022/05/25 02:38:41;;;;;;;6.88;4.53;;;12.80;99.90;;;;;;4970824;28;20494;-79
2022/05/25 02:41:12;;;;;;;5.88;4.25;;;12.90;99.90;;;;;;4970749;28;20038;-79
2022/05/25 02:43:39;;;;;;;6.13;4.93;;;12.80;99.90;;;;;;4953460;28;20416;-79
2022/05/25 02:46:08;;;;;;;7.43;5.68;;;12.80;99.90;;;;;;4970500;28;20039;-79
2022/05/25 02:48:35;;;;;;;7.22;5.82;;;12.80;99.90;;;;;;4972749;28;20031;-79
2022/05/25 02:51:01;;;;;;;7.47;5.18;;;12.90;99.90;;;;;;4974515;28;20023;-79
2022/05/25 02:53:27;;;;;;;9.13;5.55;;;12.90;99.90;;;;;;4974668;28;20023;-79
2022/05/25 02:55:52;;;;;;;9.18;5.38;;;12.90;99.90;;;;;;4961073;28;20030;-79
2022/05/25 02:58:18;;;;;;;7.53;5.28;;;12.90;99.90;;;;;;4974204;28;20141;-79
2022/05/25 03:00:44;;;;;;;5.68;4.60;;;12.90;99.90;;;;;;4973113;28;20031;-79
2022/05/25 03:03:12;;;;;;;7.57;5.50;;;12.90;99.90;;;;;;4974048;28;20050;-79
2022/05/25 03:05:42;;;;;;;5.80;5.00;;;12.90;99.90;;;;;;4974127;28;20023;-79
2022/05/25 03:08:08;;;;;;;7.95;5.30;;;12.90;99.90;;;;;;4973911;28;20488;-79
2022/05/25 03:10:33;;;;;;;8.63;5.18;;;12.90;99.90;;;;;;4974226;28;20033;-79
2022/05/25 03:12:59;;;;;;;9.85;5.30;;;12.90;99.90;;;;;;4973964;28;20516;-79
2022/05/25 03:15:26;;;;;;;7.25;5.18;;;12.90;99.90;;;;;;4973921;28;20062;-79
2022/05/25 03:17:52;;;;;;;11.52;5.80;;;12.90;99.90;;;;;;4974039;28;20023;-79
2022/05/25 03:20:17;;;;;;;7.22;5.32;;;12.90;99.90;;;;;;4973948;28;20033;-79
2022/05/25 03:22:44;;;;;;;7.22;5.07;;;12.90;99.90;;;;;;4973835;28;20045;-79
2022/05/25 03:25:11;;;;;;;8.32;4.82;;;12.90;99.90;;;;;;4973700;28;20030;-79
2022/05/25 03:27:37;;;;;;;5.35;4.85;;;12.90;99.90;;;;;;4973413;28;20033;-79
2022/05/25 03:30:05;;;;;;;7.90;5.10;;;12.90;99.90;;;;;;4973541;28;20034;-79
2022/05/25 03:32:31;;;;;;;8.27;5.35;;;12.90;99.90;;;;;;4973386;28;20054;-79
2022/05/25 03:34:57;;;;;;;5.32;4.82;;;12.90;99.90;;;;;;4973713;28;20137;-79
2022/05/25 03:37:23;;;;;;;8.00;5.38;;;12.80;99.90;;;;;;4972966;28;20468;-79
2022/05/25 03:39:48;;;;;;;6.10;4.88;;;12.80;99.90;;;;;;4973187;28;20114;-79
2022/05/25 03:42:16;;;;;;;6.95;4.80;;;12.90;99.90;;;;;;4972308;28;20031;-79
2022/05/25 03:44:41;;;;;;;7.10;4.93;;;12.80;99.90;;;;;;4973199;28;20548;-79
2022/05/25 03:47:07;;;;;;;7.20;4.85;;;12.80;99.90;;;;;;4973288;28;20117;-79
2022/05/25 03:49:32;;;;;;;6.75;4.90;;;12.80;99.90;;;;;;4955491;28;20037;-79
2022/05/25 03:51:58;;;;;;;8.30;5.72;;;12.80;99.90;;;;;;4973274;28;20054;-79
2022/05/25 03:54:24;;;;;;;6.82;5.93;;;12.80;99.90;;;;;;4975800;28;20070;-79
2022/05/25 03:56:50;;;;;;;11.30;5.63;;;12.80;99.90;;;;;;4981422;28;20109;-79
2022/05/25 03:59:16;;;;;;;6.30;5.65;;;12.80;99.90;;;;;;4972857;28;20022;-79
2022/05/25 04:01:41;;;;;;;7.05;6.25;;;12.80;99.90;;;;;;4971927;28;20137;-79
2022/05/25 04:04:07;;;;;;;9.60;7.07;;;12.90;99.90;;;;;;4972990;28;20420;-79
2022/05/25 04:06:33;;;;;;;8.27;6.18;;;12.90;99.90;;;;;;4973215;28;20080;-79
2022/05/25 04:09:02;;;;;;;8.35;6.95;;;12.90;99.90;;;;;;4972702;28;20033;-79
2022/05/25 04:11:30;;;;;;;7.72;6.75;;;12.90;99.90;;;;;;4973162;28;20443;-79
2022/05/25 04:13:55;;;;;;;9.30;7.32;;;12.90;99.90;;;;;;4971299;28;20066;-79
2022/05/25 04:16:21;;;;;;;10.77;7.40;;;12.90;99.90;;;;;;4973314;28;20410;-79
2022/05/25 04:18:47;;;;;;;10.10;7.85;;;12.90;99.90;;;;;;4972866;28;20030;-79
2022/05/25 04:21:12;;;;;;;8.55;7.47;;;12.90;99.90;;;;;;4972633;28;20034;-80
2022/05/25 04:23:38;;;;;;;8.10;7.30;;;12.90;99.90;;;;;;4972609;28;20031;-80
2022/05/25 04:26:03;;;;;;;9.43;7.93;;;12.90;99.90;;;;;;4972528;28;20422;-78
2022/05/25 04:28:29;;;;;;;11.20;7.78;;;12.90;99.90;;;;;;4972179;28;20054;-78
2022/05/25 04:30:55;;;;;;;9.18;8.27;;;12.90;99.90;;;;;;4971378;28;20033;-78
2022/05/25 04:33:20;;;;;;;12.30;7.70;;;13.00;99.90;;;;;;4972254;28;20019;-78
2022/05/25 04:35:46;;;;;;;10.32;8.13;;;12.90;99.90;;;;;;4972441;28;20093;-78
2022/05/25 04:38:15;;;;;;;9.65;7.80;;;12.90;99.90;;;;;;4974144;28;20085;-78
2022/05/25 04:40:44;;;;;;;8.90;6.97;;;13.00;99.90;;;;;;4991362;28;20080;-78
2022/05/25 04:43:13;;;;;;;9.32;7.18;;;13.00;99.90;;;;;;4985181;28;20371;-78
2022/05/25 04:45:41;;;;;;;8.35;7.05;;;13.00;99.90;;;;;;4981403;28;20022;-78
2022/05/25 04:48:07;;;;;;;10.73;7.97;;;13.00;99.90;;;;;;4981348;28;20030;-78
2022/05/25 04:50:36;;;;;;;8.25;7.38;;;13.00;99.90;;;;;;4973677;28;20749;-78
2022/05/25 04:53:03;;;;;;;9.18;7.75;;;12.90;99.90;;;;;;4989823;28;20443;-78
2022/05/25 04:58:22;;;;;;;13.23;8.17;;;12.90;99.90;;;;;;4989127;28;20044;-80
2022/05/25 05:00:48;;;;;;;10.10;7.35;;;12.90;99.90;;;;;;4993595;28;20264;-80
2022/05/25 05:03:15;;;;;;;8.73;7.90;;;12.90;99.90;;;;;;4993059;28;20105;-80
2022/05/25 05:05:40;;;;;;;9.18;7.45;;;12.80;99.90;;;;;;4991387;28;20454;-80
2022/05/25 05:08:08;;;;;;;10.00;7.68;;;12.80;99.90;;;;;;4970247;28;20109;-80
2022/05/25 05:10:34;;;;;;;11.70;8.30;;;12.80;99.90;;;;;;4992532;28;20052;-79
2022/05/25 05:13:04;;;;;;;9.65;8.23;;;12.80;99.90;;;;;;4993177;28;20442;-79
2022/05/25 05:15:32;;;;;;;10.43;8.85;;;12.80;99.90;;;;;;4993250;28;20053;-79
2022/05/25 05:17:57;;;;;;;9.98;8.35;;;12.80;99.90;;;;;;4993558;28;20030;-79
2022/05/25 05:20:23;;;;;;;11.80;8.65;;;12.80;99.90;;;;;;4993853;28;20041;-79
2022/05/25 05:22:49;;;;;;;11.02;8.52;;;12.80;99.90;;;;;;4993098;28;20058;-79
2022/05/25 05:25:15;;;;;;;11.25;9.07;;;12.80;99.90;;;;;;4994285;28;20526;-79
2022/05/25 05:27:40;;;;;;;11.15;9.25;;;12.80;99.90;;;;;;4982238;28;20039;-79
2022/05/25 05:30:08;;;;;;;11.90;9.70;;;12.80;99.90;;;;;;4974976;28;20097;-79
2022/05/25 05:32:35;;;;;;;12.73;9.82;;;12.80;99.90;;;;;;4974539;28;20030;-79
2022/05/25 05:35:01;;;;;;;12.77;9.70;;;12.80;99.90;;;;;;4979088;28;20488;-79
2022/05/25 05:37:33;;;;;;;11.25;9.68;;;12.80;99.90;;;;;;4993454;28;20034;-79
2022/05/25 05:39:59;;;;;;;11.52;10.32;;;12.80;99.90;;;;;;4993588;28;20476;-79
2022/05/25 05:42:26;;;;;;;11.40;10.05;;;12.80;99.90;;;;;;4975569;28;20038;-79
2022/05/25 05:45:05;;;;;;;11.02;9.93;;;12.80;99.90;;;;;;4975244;28;20026;-79
2022/05/25 05:47:39;;;;;;;17.02;11.13;;;12.80;99.90;;;;;;4983619;28;20031;-79
2022/05/25 05:50:06;;;;;;;13.98;10.27;;;12.80;99.90;;;;;;4973706;28;20046;-79
2022/05/25 05:52:34;;;;;;;12.75;10.70;;;12.80;99.90;;;;;;4973585;28;20562;-79
2022/05/25 05:55:00;;;;;;;12.55;10.38;;;12.80;99.90;;;;;;4986478;28;20022;-79
2022/05/25 05:57:26;;;;;;;15.90;10.30;;;12.80;99.90;;;;;;4982283;28;20038;-79
2022/05/25 05:59:52;;;;;;;13.13;10.45;;;12.80;99.90;;;;;;4973362;28;20388;-79
2022/05/25 06:02:18;;;;;;;12.52;10.20;;;12.80;99.90;;;;;;4973600;28;20031;-79
2022/05/25 06:04:43;;;;;;;10.73;9.60;;;12.70;99.90;;;;;;4973472;28;20023;-79
2022/05/25 06:07:09;;;;;;;10.57;9.25;;;12.70;99.90;;;;;;4973532;28;20031;-79
2022/05/25 06:09:34;;;;;;;13.10;9.70;;;12.80;99.90;;;;;;4973327;28;20105;-79
2022/05/25 06:12:00;;;;;;;11.90;9.05;;;12.80;99.90;;;;;;4980919;28;20391;-81
2022/05/25 06:14:26;;;;;;;10.10;8.52;;;12.80;99.90;;;;;;4991196;28;20518;-81
2022/05/25 06:19:37;;;;;;;9.88;8.40;;;12.80;99.90;;;;;;4990362;28;20525;-81
2022/05/25 06:22:07;;;;;;;7.88;7.07;;;12.80;99.90;;;;;;4975197;28;20031;-81
2022/05/25 06:24:48;;;;;;;9.77;8.05;;;12.80;99.90;;;;;;4995594;28;20057;-81
2022/05/25 06:27:15;;;;;;;9.52;6.43;;;12.80;99.90;;;;;;4993793;28;20038;-81
2022/05/25 06:29:44;;;;;;;7.20;6.00;;;12.80;99.90;;;;;;4994929;28;20100;-81
2022/05/25 06:32:11;;;;;;;10.32;6.18;;;12.80;99.90;;;;;;4982086;28;20039;-81
2022/05/25 06:34:39;;;;;;;6.35;4.93;;;12.90;99.90;;;;;;4975840;28;20039;-81
2022/05/25 06:37:05;;;;;;;7.10;4.63;;;12.90;99.90;;;;;;4976100;28;20105;-81
2022/05/25 06:39:38;;;;;;;5.90;4.95;;;12.90;99.90;;;;;;4976357;28;20045;-81
2022/05/25 06:42:05;;;;;;;5.72;4.72;;;13.00;99.90;;;;;;4975983;28;20058;-81
2022/05/25 06:44:31;;;;;;;6.88;4.90;;;13.00;99.90;;;;;;4975986;28;20038;-81
2022/05/25 06:46:57;;;;;;;5.20;4.32;;;13.00;99.90;;;;;;4958605;28;20034;-81
2022/05/25 06:49:22;;;;;;;12.88;5.05;;;13.00;99.90;;;;;;4975808;28;20027;-81
2022/05/25 06:51:48;;;;;;;6.53;5.20;;;13.10;99.90;;;;;;4975471;28;20038;-81
2022/05/25 06:54:16;;;;;;;6.32;4.75;;;13.10;99.90;;;;;;4980132;28;20373;-81
2022/05/25 06:56:41;;;;;;;5.18;4.18;;;13.20;99.90;;;;;;4983736;28;20482;-81
2022/05/25 06:59:07;;;;;;;6.82;4.82;;;13.30;99.90;;;;;;4994419;28;20038;-81
2022/05/25 07:01:34;;;;;;;9.40;5.20;;;13.40;99.90;;;;;;4980653;28;20814;-81
2022/05/25 07:04:01;;;;;;;6.97;5.05;;;13.40;99.90;;;;;;4976100;28;20057;-81
2022/05/25 07:06:27;;;;;;;6.82;4.30;;;13.50;99.90;;;;;;4975673;28;20035;-81
2022/05/25 07:08:53;;;;;;;6.35;4.13;;;13.50;99.90;;;;;;4992099;28;20428;-81
2022/05/25 07:11:20;;;;;;;6.07;4.05;;;13.60;99.90;;;;;;4995133;28;20030;-81
2022/05/25 07:13:45;;;;;;;6.68;4.20;;;13.60;99.90;;;;;;4995020;28;20053;-81
2022/05/25 07:16:14;;;;;;;5.97;4.20;;;13.60;99.90;;;;;;4987139;28;20023;-81
2022/05/25 07:18:41;;;;;;;7.55;3.90;;;13.70;99.90;;;;;;4975053;28;20106;-81
2022/05/25 07:21:11;;;;;;;3.40;2.90;;;13.80;99.90;;;;;;4975671;28;20527;-82
2022/05/25 07:23:39;;;;;;;4.88;3.35;;;13.90;99.90;;;;;;4987552;28;20360;-81
2022/05/25 07:26:07;;;;;;;5.47;3.72;;;13.90;99.90;;;;;;4994517;28;20034;-81
2022/05/25 07:28:36;;;;;;;4.60;3.67;;;14.10;99.90;;;;;;4981986;28;20360;-81
2022/05/25 07:31:15;;;;;;;5.35;3.88;;;14.10;99.90;;;;;;4975948;28;20042;-78
2022/05/25 07:33:44;;;;;;;4.53;3.22;;;14.00;99.90;;;;;;4959134;28;20452;-77
2022/05/25 07:36:11;;;;;;;3.13;2.38;;;14.00;99.90;;;;;;4995243;28;20057;-78
2022/05/25 07:38:41;;;;;;;2.88;2.45;;;14.10;99.90;;;;;;4994434;28;20368;-78
2022/05/25 07:41:08;;;;;;;2.70;2.20;;;14.20;99.90;;;;;;4976089;28;20081;-78
2022/05/25 07:43:34;;;;;;;6.93;2.15;;;14.30;99.90;;;;;;4976957;28;20101;-78
2022/05/25 07:46:00;;;;;;;11.27;3.53;;;14.50;99.90;;;;;;4976471;28;20061;-78
2022/05/25 07:48:26;;;;;;;3.47;2.10;;;14.60;99.90;;;;;;4990875;28;20034;-78
2022/05/25 07:50:52;;;;;;;6.25;2.40;;;14.60;99.90;;;;;;4987840;28;20033;-78
2022/05/25 07:56:03;;;;;;;4.38;2.40;;;14.80;99.90;;;;;;4975480;28;20042;-78
2022/05/25 07:58:30;;;;;;;3.38;2.20;;;14.80;99.90;;;;;;4958727;28;20049;-78
2022/05/25 08:00:58;;;;;;;3.67;2.22;;;14.80;99.90;;;;;;4979576;28;20026;-78
2022/05/25 08:06:09;;;;;;;2.85;2.13;;;14.90;99.90;;;;;;4975508;28;20053;-77
2022/05/25 08:08:36;;;;;;;3.65;1.90;;;14.90;99.90;;;;;;4992816;28;20069;-77
2022/05/25 08:11:10;;;;;;;3.40;1.80;;;14.90;99.90;;;;;;4980274;28;20102;-82
2022/05/25 08:13:41;;;;;;;3.15;1.92;;;14.90;99.90;;;;;;4991320;28;20426;-81
2022/05/25 08:16:08;;;;;;;2.17;1.80;;;15.00;99.90;;;;;;4993648;28;20042;-81
2022/05/25 08:18:34;;;;;;;3.22;1.98;;;15.10;99.90;;;;;;4992272;28;20046;-81
2022/05/25 08:21:00;;;;;;;3.28;1.60;;;15.10;99.90;;;;;;4992512;28;20065;-82
2022/05/25 08:23:25;;;;;;;2.90;1.60;;;15.20;99.90;;;;;;4993461;28;20481;-82
2022/05/25 08:25:51;;;;;;;2.85;1.77;;;15.20;99.90;;;;;;4979650;28;20085;-82
2022/05/25 08:28:17;;;;;;;4.13;1.90;;;15.40;99.90;;;;;;4973407;28;20026;-82
2022/05/25 08:30:45;;;;;;;2.28;1.63;;;15.50;99.90;;;;;;4989566;28;20029;-82
2022/05/25 08:33:11;;;;;;;3.85;1.80;;;15.70;99.90;;;;;;4993074;28;20023;-82
2022/05/25 08:35:37;;;;;;;2.55;1.65;;;15.80;99.90;;;;;;4992697;28;20042;-82
2022/05/25 08:38:03;;;;;;;6.10;1.85;;;16.00;99.90;;;;;;4991825;28;20034;-82
2022/05/25 08:40:31;;;;;;;2.97;1.80;;;16.00;99.90;;;;;;4991764;28;20619;-82
2022/05/25 08:43:14;;;;;;;4.93;1.80;;;16.20;99.90;;;;;;4973989;28;20357;-82
2022/05/25 08:45:47;;;;;;;2.70;1.52;;;16.30;99.90;;;;;;4985035;28;20104;-82
2022/05/25 08:48:15;;;;;;;1.90;1.40;;;16.20;99.90;;;;;;4992586;28;20538;-82
2022/05/25 08:50:43;;;;;;;2.17;1.30;;;16.20;99.90;;;;;;4992484;28;20027;-82
2022/05/25 08:53:12;;;;;;;2.33;1.45;;;16.30;99.90;;;;;;4989597;28;20480;-82
2022/05/25 08:55:57;;;;;;;2.47;1.40;;;16.30;99.90;;;;;;4985015;28;20105;-82
2022/05/25 08:58:40;;;;;;;2.97;1.13;;;16.20;99.90;;;;;;4973204;28;20054;-82
2022/05/25 09:01:08;;;;;;;1.92;1.35;;;16.00;99.90;;;;;;4973007;28;20042;-82
2022/05/25 09:03:55;;;;;;;2.90;1.23;;;15.80;99.90;;;;;;4983477;28;20483;-82
2022/05/25 09:06:41;;;;;;;2.03;1.10;;;15.70;99.90;;;;;;4992612;28;20030;-82
2022/05/25 09:09:38;;;;;;;1.38;1.10;;;15.60;99.90;;;;;;4956321;28;20038;-82
2022/05/25 09:12:14;;;;;;;1.95;1.13;;;15.60;99.90;;;;;;4967155;28;20082;-82
2022/05/25 09:14:56;;;;;;;2.78;1.70;;;15.60;99.90;;;;;;4987835;28;20375;-82
2022/05/25 09:17:52;;;;;;;1.73;1.00;;;15.60;99.90;;;;;;4991948;28;20045;-82
2022/05/25 09:20:25;;;;;;;2.42;1.10;;;15.70;99.90;;;;;;4991486;28;20479;-82
2022/05/25 09:22:52;;;;;;;3.17;1.27;;;15.80;99.90;;;;;;4992286;28;20066;-82
2022/05/25 09:25:19;;;;;;;2.22;1.10;;;15.90;99.90;;;;;;4973200;28;20049;-81
2022/05/25 09:28:14;;;;;;;1.80;1.10;;;16.00;99.90;;;;;;4973582;28;20157;-81
2022/05/25 09:30:45;;;;;;;1.50;1.08;;;15.90;99.90;;;;;;4973362;28;20027;-81
2022/05/25 09:33:26;;;;;;;2.38;1.20;;;15.90;99.90;;;;;;4973817;28;20475;-81
2022/05/25 09:35:57;;;;;;;4.30;1.02;;;15.90;99.90;;;;;;4983209;28;20553;-81
2022/05/25 09:38:42;;;;;;;1.95;1.20;;;16.00;99.90;;;;;;4974741;28;20030;-81
2022/05/25 09:41:11;;;;;;;3.20;1.30;;;16.10;99.90;;;;;;4991701;28;20113;-82
2022/05/25 09:43:38;;;;;;;2.63;1.30;;;16.30;99.90;;;;;;4991334;28;20102;-81
2022/05/25 09:46:10;;;;;;;2.22;1.15;;;16.50;99.90;;;;;;4990600;28;20341;-81
2022/05/25 09:48:59;;;;;;;1.73;1.15;;;16.60;99.90;;;;;;4989757;28;20034;-81
2022/05/25 09:51:34;;;;;;;1.80;1.05;;;16.70;99.90;;;;;;4989479;28;20022;-80
2022/05/25 09:54:21;;;;;;;3.15;1.20;;;16.60;99.90;;;;;;4986275;28;20497;-81
2022/05/25 09:56:54;;;;;;;2.00;1.10;;;16.60;99.90;;;;;;4969571;28;20490;-81
2022/05/25 09:59:36;;;;;;;3.40;1.27;;;16.60;99.90;;;;;;4969684;28;20468;-81
2022/05/25 10:02:35;;;;;;;2.25;1.10;;;16.70;99.90;;;;;;4969624;28;20031;-80
2022/05/25 10:05:15;;;;;;;1.83;1.10;;;16.90;99.90;;;;;;4970025;28;20388;-80
2022/05/25 10:08:07;;;;;;;3.28;1.17;;;17.20;99.90;;;;;;4969628;28;20042;-80
2022/05/25 10:10:44;;;;;;;2.28;1.15;;;17.40;99.90;;;;;;4943266;28;20042;-80
2022/05/25 10:13:15;;;;;;;1.25;0.93;;;17.50;99.90;;;;;;4969335;28;20031;-80
2022/05/25 10:15:41;;;;;;;3.35;1.33;;;17.50;99.90;;;;;;4951101;28;20023;-80
2022/05/25 10:18:13;;;;;;;1.85;1.13;;;17.60;99.90;;;;;;4969155;28;20034;-80
2022/05/25 10:20:42;;;;;;;1.60;1.20;;;17.60;99.90;;;;;;4969286;28;20062;-80
2022/05/25 10:23:28;;;;;;;3.45;1.52;;;17.70;99.90;;;;;;4969047;28;20085;-80
2022/05/25 10:26:06;;;;;;;1.92;1.10;;;17.70;99.90;;;;;;4952023;28;20491;-79
2022/05/25 10:28:35;;;;;;;2.15;1.25;;;17.80;99.90;;;;;;4969353;28;20126;-80
2022/05/25 10:37:11;;;;;;;2.38;1.10;;;18.80;99.90;;;;;;4969508;28;20062;-79
2022/05/25 10:39:45;;;;;;;3.85;1.23;;;19.00;99.90;;;;;;4969050;28;20028;-80
2022/05/25 10:42:45;;;;;;;1.77;0.98;;;18.90;99.90;;;;;;4968530;28;20035;-80
2022/05/25 10:45:18;;;;;;;1.83;1.00;;;19.10;99.90;;;;;;4969140;28;20363;-80
2022/05/25 10:47:57;;;;;;;1.75;1.00;;;19.30;99.90;;;;;;4968760;28;20105;-79
2022/05/25 10:50:45;;;;;;;2.47;1.10;;;19.60;99.90;;;;;;4968440;28;20061;-80
2022/05/25 10:53:17;;;;;;;1.58;0.90;;;20.00;99.90;;;;;;4968417;28;20077;-80
2022/05/25 10:56:06;;;;;;;2.10;1.00;;;20.50;99.90;;;;;;4980292;28;20040;-80
2022/05/25 10:59:12;;;;;;;2.28;1.00;;;20.60;99.90;;;;;;4968209;28;20383;-79
2022/05/25 11:02:04;;;;;;;2.95;0.95;;;20.60;99.90;;;;;;4967625;28;20042;-80
2022/05/25 11:04:57;;;;;;;2.78;0.95;;;20.30;99.90;;;;;;4968504;28;20031;-79
2022/05/25 11:07:35;;;;;;;2.35;0.90;;;20.30;99.90;;;;;;4968037;28;20117;-79
2022/05/25 11:10:21;;;;;;;1.17;0.75;;;20.30;99.90;;;;;;4971848;28;20099;-79
2022/05/25 11:13:14;;;;;;;3.33;1.00;;;20.30;99.90;;;;;;4954329;28;20033;-79
2022/05/25 11:16:10;;;;;;;3.17;0.85;;;20.70;99.90;;;;;;4972338;28;20205;-78
2022/05/25 11:19:00;;;;;;;1.58;0.70;;;20.80;99.90;;;;;;4971786;28;20030;-79
2022/05/25 11:21:48;;;;;;;2.38;0.73;;;21.00;99.90;;;;;;4971520;28;20042;-79
2022/05/25 11:24:26;;;;;;;1.92;0.90;;;20.90;99.90;;;;;;4972131;28;20027;-78
2022/05/25 11:27:09;;;;;;;1.38;0.70;;;21.00;99.90;;;;;;4972372;28;20082;-79
2022/05/25 11:29:37;;;;;;;3.03;0.70;;;21.10;99.90;;;;;;4972825;28;20074;-78
2022/05/25 11:32:34;;;;;;;1.40;0.80;;;21.20;99.90;;;;;;4954743;28;20491;-78
2022/05/25 11:35:30;;;;;;;1.65;0.70;;;21.00;99.90;;;;;;4971715;28;20055;-78
2022/05/25 11:38:18;;;;;;;2.20;0.90;;;20.60;99.90;;;;;;4955283;28;20485;-78
2022/05/25 11:41:16;;;;;;;1.65;0.90;;;20.20;99.90;;;;;;4971767;28;20031;-78
2022/05/25 11:43:50;;;;;;;2.47;0.90;;;19.80;99.90;;;;;;4971484;28;20138;-78
2022/05/25 11:46:34;;;;;;;1.55;0.80;;;19.40;99.90;;;;;;4971284;28;20027;-78
2022/05/25 11:49:27;;;;;;;2.58;0.98;;;19.20;99.90;;;;;;4971961;28;20026;-78
2022/05/25 11:52:10;;;;;;;2.45;1.05;;;19.00;99.90;;;;;;4972100;28;20118;-78
2022/05/25 11:54:53;;;;;;;2.25;0.82;;;18.90;99.90;;;;;;4976249;28;20034;-78
2022/05/25 11:57:37;;;;;;;3.47;1.10;;;18.90;99.90;;;;;;4986441;28;20045;-78
2022/05/25 12:00:32;;;;;;;1.50;0.90;;;18.70;99.90;;;;;;4973138;28;20046;-78
2022/05/25 12:03:28;;;;;;;0.93;0.77;;;18.60;99.90;;;;;;4990919;28;20578;-78
2022/05/25 12:06:22;;;;;;;2.00;0.95;;;18.50;99.90;;;;;;4973005;28;20034;-78
2022/05/25 12:09:26;;;;;;;1.38;0.90;;;18.40;99.90;;;;;;4990756;28;20042;-78
2022/05/25 12:12:28;;;;;;;3.35;1.08;;;18.50;99.90;;;;;;4936228;28;20038;-78
2022/05/25 12:15:06;;;;;;;2.55;1.00;;;18.40;99.90;;;;;;4972904;28;20035;-78
2022/05/25 12:18:02;;;;;;;1.60;0.85;;;18.30;99.90;;;;;;4972480;28;20392;-78
2022/05/25 12:20:46;;;;;;;2.42;1.00;;;18.30;99.90;;;;;;4990285;28;20066;-78
2022/05/25 12:23:21;;;;;;;2.95;1.05;;;18.40;99.90;;;;;;4991114;28;20022;-78
2022/05/25 12:26:00;;;;;;;1.55;0.88;;;18.40;99.90;;;;;;4972742;28;20022;-78
2022/05/25 12:28:38;;;;;;;1.42;0.90;;;18.50;99.90;;;;;;4990202;28;20026;-78
2022/05/25 12:31:17;;;;;;;1.60;0.88;;;18.60;99.90;;;;;;4990233;28;20061;-79
2022/05/25 12:33:43;;;;;;;2.25;1.55;;;18.70;99.90;;;;;;4990140;28;20314;-78
2022/05/25 12:36:10;;;;;;;1.65;0.98;;;18.80;99.90;;;;;;4990017;28;20050;-78
2022/05/25 12:38:37;;;;;;;3.67;1.00;;;18.80;99.90;;;;;;4989879;28;20348;-78
2022/05/25 12:41:32;;;;;;;3.13;0.90;;;18.80;99.90;;;;;;4989851;28;20120;-78
2022/05/25 12:43:59;;;;;;;0.98;0.77;;;18.80;99.90;;;;;;4989657;28;20027;-78
2022/05/25 12:49:45;;;;;;;1.90;0.88;;;18.50;99.90;;;;;;4989596;28;20040;-78
2022/05/25 12:52:26;;;;;;;3.00;0.98;;;18.40;99.90;;;;;;4989140;28;20030;-78
2022/05/25 12:54:58;;;;;;;2.20;1.00;;;18.20;99.90;;;;;;4983128;28;20041;-78
2022/05/25 12:57:37;;;;;;;1.30;0.88;;;18.30;99.90;;;;;;4972910;28;20046;-78
2022/05/25 13:00:36;;;;;;;1.23;0.90;;;18.30;99.90;;;;;;4969847;28;20034;-78
2022/05/25 13:03:22;;;;;;;1.40;1.00;;;18.30;99.90;;;;;;4942169;28;20432;-78
2022/05/25 13:05:52;;;;;;;3.05;1.02;;;18.40;99.90;;;;;;4970652;28;20034;-78
2022/05/25 13:08:45;;;;;;;1.83;1.10;;;18.30;99.90;;;;;;4970322;28;20090;-78
2022/05/25 13:11:30;;;;;;;2.13;1.20;;;18.30;99.90;;;;;;4971150;28;20117;-78
2022/05/25 13:14:00;;;;;;;1.88;1.20;;;18.20;99.90;;;;;;4970561;28;20030;-78
2022/05/25 13:16:41;;;;;;;2.55;1.30;;;18.20;99.90;;;;;;4970607;28;20093;-78
2022/05/25 13:19:34;;;;;;;1.77;0.90;;;18.10;99.90;;;;;;4969749;28;20058;-78
2022/05/25 13:22:03;;;;;;;4.70;1.10;;;18.00;99.90;;;;;;4969833;28;20134;-78
2022/05/25 13:24:55;;;;;;;2.30;0.90;;;17.90;99.90;;;;;;4969290;28;20027;-78
2022/05/25 13:27:35;;;;;;;4.65;1.40;;;17.90;99.90;;;;;;4938729;28;20070;-78
2022/05/25 13:30:04;;;;;;;3.13;0.98;;;17.80;99.90;;;;;;4969425;28;20029;-77
2022/05/25 13:32:50;;;;;;;2.97;1.08;;;17.70;99.90;;;;;;4968824;28;20774;-78
2022/05/25 13:35:19;;;;;;;1.83;1.02;;;17.70;99.90;;;;;;4951718;28;20555;-78
2022/05/25 13:37:50;;;;;;;2.63;1.10;;;17.70;99.90;;;;;;4969451;28;20030;-78
2022/05/25 13:40:16;;;;;;;1.63;0.90;;;17.80;99.90;;;;;;4969042;28;20031;-78
2022/05/25 13:42:48;;;;;;;1.50;0.80;;;17.80;99.90;;;;;;4969022;28;20515;-77
2022/05/25 13:45:23;;;;;;;6.85;1.33;;;17.90;99.90;;;;;;4968854;28;20034;-78